sensor_id;sensor_type;location;lat;lon;timestamp;temperature;humidity
5842;DHT22;2947;52.276;9.946;2022-09-09T00:04:35;14.50;99.90
5842;DHT22;2947;52.276;9.946;2022-09-09T00:10:28;14.50;99.90
5842;DHT22;2947;52.276;9.946;2022-09-09T00:16:25;14.40;99.90
5842;DHT22;2947;52.276;9.946;2022-09-09T00:18:59;14.50;99.90
5842;DHT22;2947;52.276;9.946;2022-09-09T00:21:39;14.50;99.90
5842;DHT22;2947;52.276;9.946;2022-09-09T00:24:18;14.50;99.90
5842;DHT22;2947;52.276;9.946;2022-09-09T00:27:11;14.40;99.90
5842;DHT22;2947;52.276;9.946;2022-09-09T00:32:44;14.40;99.90
5842;DHT22;2947;52.276;9.946;2022-09-09T00:37:55;14.40;99.90
5842;DHT22;2947;52.276;9.946;2022-09-09T00:51:54;14.40;99.90
5842;DHT22;2947;52.276;9.946;2022-09-09T00:55:12;14.30;99.90
5842;DHT22;2947;52.276;9.946;2022-09-09T00:57:44;14.20;99.90
5842;DHT22;2947;52.276;9.946;2022-09-09T01:00:27;14.20;99.90
5842;DHT22;2947;52.276;9.946;2022-09-09T01:03:22;14.10;99.90
5842;DHT22;2947;52.276;9.946;2022-09-09T01:17:46;14.00;99.90
5842;DHT22;2947;52.276;9.946;2022-09-09T01:20:19;13.90;99.90
5842;DHT22;2947;52.276;9.946;2022-09-09T01:28:13;14.00;99.90
5842;DHT22;2947;52.276;9.946;2022-09-09T01:30:41;14.00;99.90
5842;DHT22;2947;52.276;9.946;2022-09-09T01:33:17;14.00;99.90
5842;DHT22;2947;52.276;9.946;2022-09-09T01:35:57;14.00;99.90
5842;DHT22;2947;52.276;9.946;2022-09-09T01:38:26;14.00;99.90
5842;DHT22;2947;52.276;9.946;2022-09-09T01:40:55;14.00;99.90
5842;DHT22;2947;52.276;9.946;2022-09-09T01:43:21;14.00;99.90
5842;DHT22;2947;52.276;9.946;2022-09-09T01:45:49;14.00;99.90
5842;DHT22;2947;52.276;9.946;2022-09-09T01:48:19;14.00;99.90
5842;DHT22;2947;52.276;9.946;2022-09-09T01:50:45;14.10;99.90
5842;DHT22;2947;52.276;9.946;2022-09-09T01:53:12;14.00;99.90
5842;DHT22;2947;52.276;9.946;2022-09-09T01:55:40;14.00;99.90
5842;DHT22;2947;52.276;9.946;2022-09-09T02:01:08;14.00;99.90
5842;DHT22;2947;52.276;9.946;2022-09-09T02:04:04;14.00;99.90
5842;DHT22;2947;52.276;9.946;2022-09-09T02:06:38;14.10;99.90
5842;DHT22;2947;52.276;9.946;2022-09-09T02:09:07;14.10;99.90
5842;DHT22;2947;52.276;9.946;2022-09-09T02:11:36;14.10;99.90
5842;DHT22;2947;52.276;9.946;2022-09-09T02:14:10;14.00;99.90
5842;DHT22;2947;52.276;9.946;2022-09-09T02:16:52;14.10;99.90
5842;DHT22;2947;52.276;9.946;2022-09-09T02:19:27;14.10;99.90
5842;DHT22;2947;52.276;9.946;2022-09-09T02:21:59;14.10;99.90
5842;DHT22;2947;52.276;9.946;2022-09-09T02:24:28;14.00;99.90
5842;DHT22;2947;52.276;9.946;2022-09-09T02:26:56;14.00;99.90
5842;DHT22;2947;52.276;9.946;2022-09-09T02:29:33;14.00;99.90
5842;DHT22;2947;52.276;9.946;2022-09-09T02:32:04;14.00;99.90
5842;DHT22;2947;52.276;9.946;2022-09-09T02:34:35;14.00;99.90
5842;DHT22;2947;52.276;9.946;2022-09-09T02:37:03;14.00;99.90
5842;DHT22;2947;52.276;9.946;2022-09-09T02:39:29;14.00;99.90
5842;DHT22;2947;52.276;9.946;2022-09-09T02:41:55;14.00;99.90
5842;DHT22;2947;52.276;9.946;2022-09-09T02:44:22;14.00;99.90
5842;DHT22;2947;52.276;9.946;2022-09-09T02:58:09;14.00;99.90
5842;DHT22;2947;52.276;9.946;2022-09-09T03:00:38;14.00;99.90
5842;DHT22;2947;52.276;9.946;2022-09-09T03:03:06;14.00;99.90
5842;DHT22;2947;52.276;9.946;2022-09-09T03:05:34;14.00;99.90
5842;DHT22;2947;52.276;9.946;2022-09-09T03:08:01;14.00;99.90
5842;DHT22;2947;52.276;9.946;2022-09-09T03:10:27;14.00;99.90
5842;DHT22;2947;52.276;9.946;2022-09-09T03:12:53;14.00;99.90
5842;DHT22;2947;52.276;9.946;2022-09-09T03:15:20;14.00;99.90
5842;DHT22;2947;52.276;9.946;2022-09-09T03:17:46;14.00;99.90
5842;DHT22;2947;52.276;9.946;2022-09-09T03:20:12;14.10;99.90
5842;DHT22;2947;52.276;9.946;2022-09-09T03:22:38;14.00;99.90
5842;DHT22;2947;52.276;9.946;2022-09-09T03:25:04;14.10;99.90
5842;DHT22;2947;52.276;9.946;2022-09-09T03:27:31;14.10;99.90
5842;DHT22;2947;52.276;9.946;2022-09-09T03:29:57;14.10;99.90
5842;DHT22;2947;52.276;9.946;2022-09-09T03:32:24;14.10;99.90
5842;DHT22;2947;52.276;9.946;2022-09-09T03:34:52;14.10;99.90
5842;DHT22;2947;52.276;9.946;2022-09-09T03:37:19;14.10;99.90
5842;DHT22;2947;52.276;9.946;2022-09-09T03:39:45;14.10;99.90
5842;DHT22;2947;52.276;9.946;2022-09-09T03:42:15;14.10;99.90
5842;DHT22;2947;52.276;9.946;2022-09-09T03:44:44;14.20;99.90
5842;DHT22;2947;52.276;9.946;2022-09-09T03:47:19;14.20;99.90
5842;DHT22;2947;52.276;9.946;2022-09-09T03:49:47;14.30;99.90
5842;DHT22;2947;52.276;9.946;2022-09-09T03:52:14;14.30;99.90
5842;DHT22;2947;52.276;9.946;2022-09-09T03:54:40;14.40;99.90
5842;DHT22;2947;52.276;9.946;2022-09-09T03:57:11;14.40;99.90
5842;DHT22;2947;52.276;9.946;2022-09-09T03:59:37;14.40;99.90
5842;DHT22;2947;52.276;9.946;2022-09-09T04:02:04;14.50;99.90
5842;DHT22;2947;52.276;9.946;2022-09-09T04:04:29;14.50;99.90
5842;DHT22;2947;52.276;9.946;2022-09-09T04:06:55;14.50;99.90
5842;DHT22;2947;52.276;9.946;2022-09-09T04:09:21;14.60;99.90
5842;DHT22;2947;52.276;9.946;2022-09-09T04:11:47;14.50;99.90
5842;DHT22;2947;52.276;9.946;2022-09-09T04:14:12;14.50;99.90
5842;DHT22;2947;52.276;9.946;2022-09-09T04:16:38;14.50;99.90
5842;DHT22;2947;52.276;9.946;2022-09-09T04:19:04;14.60;99.90
5842;DHT22;2947;52.276;9.946;2022-09-09T04:21:32;14.60;99.90
5842;DHT22;2947;52.276;9.946;2022-09-09T04:23:57;14.60;99.90
5842;DHT22;2947;52.276;9.946;2022-09-09T04:26:23;14.60;99.90
5842;DHT22;2947;52.276;9.946;2022-09-09T04:28:49;14.60;99.90
5842;DHT22;2947;52.276;9.946;2022-09-09T04:31:20;14.60;99.90
5842;DHT22;2947;52.276;9.946;2022-09-09T04:33:49;14.60;99.90
5842;DHT22;2947;52.276;9.946;2022-09-09T04:36:16;14.60;99.90
5842;DHT22;2947;52.276;9.946;2022-09-09T04:38:43;14.70;99.90
5842;DHT22;2947;52.276;9.946;2022-09-09T04:41:09;14.60;99.90
5842;DHT22;2947;52.276;9.946;2022-09-09T04:43:36;14.70;99.90
5842;DHT22;2947;52.276;9.946;2022-09-09T04:46:03;14.70;99.90
5842;DHT22;2947;52.276;9.946;2022-09-09T04:48:29;14.70;99.90
5842;DHT22;2947;52.276;9.946;2022-09-09T04:51:09;14.70;99.90
5842;DHT22;2947;52.276;9.946;2022-09-09T04:53:37;14.70;99.90
5842;DHT22;2947;52.276;9.946;2022-09-09T04:56:13;14.80;99.90
5842;DHT22;2947;52.276;9.946;2022-09-09T04:58:40;14.80;99.90
5842;DHT22;2947;52.276;9.946;2022-09-09T05:01:18;14.80;99.90
5842;DHT22;2947;52.276;9.946;2022-09-09T05:03:45;14.80;99.90
5842;DHT22;2947;52.276;9.946;2022-09-09T05:06:13;14.90;99.90
5842;DHT22;2947;52.276;9.946;2022-09-09T05:08:42;14.90;99.90
5842;DHT22;2947;52.276;9.946;2022-09-09T05:11:20;15.00;99.90
5842;DHT22;2947;52.276;9.946;2022-09-09T05:13:51;14.90;99.90
5842;DHT22;2947;52.276;9.946;2022-09-09T05:16:18;15.00;99.90
5842;DHT22;2947;52.276;9.946;2022-09-09T05:18:45;15.00;99.90
5842;DHT22;2947;52.276;9.946;2022-09-09T05:21:12;15.00;99.90
5842;DHT22;2947;52.276;9.946;2022-09-09T05:23:39;15.00;99.90
5842;DHT22;2947;52.276;9.946;2022-09-09T05:26:06;15.10;99.90
5842;DHT22;2947;52.276;9.946;2022-09-09T05:28:34;15.10;99.90
5842;DHT22;2947;52.276;9.946;2022-09-09T05:31:05;15.10;99.90
5842;DHT22;2947;52.276;9.946;2022-09-09T05:33:38;15.10;99.90
5842;DHT22;2947;52.276;9.946;2022-09-09T05:36:17;15.10;99.90
5842;DHT22;2947;52.276;9.946;2022-09-09T05:38:44;15.10;99.90
5842;DHT22;2947;52.276;9.946;2022-09-09T05:41:10;15.10;99.90
5842;DHT22;2947;52.276;9.946;2022-09-09T05:43:37;15.10;99.90
5842;DHT22;2947;52.276;9.946;2022-09-09T05:48:43;15.20;99.90
5842;DHT22;2947;52.276;9.946;2022-09-09T05:51:18;15.20;99.90
5842;DHT22;2947;52.276;9.946;2022-09-09T05:53:48;15.20;99.90
5842;DHT22;2947;52.276;9.946;2022-09-09T05:56:19;15.30;99.90
5842;DHT22;2947;52.276;9.946;2022-09-09T05:58:47;15.30;99.90
5842;DHT22;2947;52.276;9.946;2022-09-09T06:01:17;15.40;99.90
5842;DHT22;2947;52.276;9.946;2022-09-09T06:03:45;15.40;99.90
5842;DHT22;2947;52.276;9.946;2022-09-09T06:06:14;15.40;99.90
5842;DHT22;2947;52.276;9.946;2022-09-09T06:08:43;15.40;99.90
5842;DHT22;2947;52.276;9.946;2022-09-09T06:11:15;15.50;99.90
5842;DHT22;2947;52.276;9.946;2022-09-09T06:13:43;15.50;99.90
5842;DHT22;2947;52.276;9.946;2022-09-09T06:16:10;15.60;99.90
5842;DHT22;2947;52.276;9.946;2022-09-09T06:18:41;15.60;99.90
5842;DHT22;2947;52.276;9.946;2022-09-09T06:21:15;15.60;99.90
5842;DHT22;2947;52.276;9.946;2022-09-09T06:23:42;15.60;99.90
5842;DHT22;2947;52.276;9.946;2022-09-09T06:26:15;15.70;99.90
5842;DHT22;2947;52.276;9.946;2022-09-09T06:28:44;15.70;99.90
5842;DHT22;2947;52.276;9.946;2022-09-09T06:31:12;15.80;99.90
5842;DHT22;2947;52.276;9.946;2022-09-09T06:33:40;15.90;99.90
5842;DHT22;2947;52.276;9.946;2022-09-09T06:36:21;15.90;99.90
5842;DHT22;2947;52.276;9.946;2022-09-09T06:38:49;16.00;99.90
5842;DHT22;2947;52.276;9.946;2022-09-09T06:41:17;16.00;99.90
5842;DHT22;2947;52.276;9.946;2022-09-09T06:43:45;16.10;99.90
5842;DHT22;2947;52.276;9.946;2022-09-09T06:46:22;16.20;99.90
5842;DHT22;2947;52.276;9.946;2022-09-09T06:48:54;16.20;99.90
5842;DHT22;2947;52.276;9.946;2022-09-09T06:51:23;16.40;99.90
5842;DHT22;2947;52.276;9.946;2022-09-09T06:53:57;16.50;99.90
5842;DHT22;2947;52.276;9.946;2022-09-09T06:56:31;16.60;99.90
5842;DHT22;2947;52.276;9.946;2022-09-09T06:59:00;16.70;99.90
5842;DHT22;2947;52.276;9.946;2022-09-09T07:01:33;16.80;99.90
5842;DHT22;2947;52.276;9.946;2022-09-09T07:04:01;16.90;99.90
5842;DHT22;2947;52.276;9.946;2022-09-09T07:06:31;16.90;99.90
5842;DHT22;2947;52.276;9.946;2022-09-09T07:08:59;17.10;99.90
5842;DHT22;2947;52.276;9.946;2022-09-09T07:11:29;17.20;99.90
5842;DHT22;2947;52.276;9.946;2022-09-09T07:13:57;17.30;99.90
5842;DHT22;2947;52.276;9.946;2022-09-09T07:16:24;17.40;99.90
5842;DHT22;2947;52.276;9.946;2022-09-09T07:18:53;17.50;99.90
5842;DHT22;2947;52.276;9.946;2022-09-09T07:21:24;17.60;99.90
5842;DHT22;2947;52.276;9.946;2022-09-09T07:23:52;17.70;99.90
5842;DHT22;2947;52.276;9.946;2022-09-09T07:26:20;17.80;99.90
5842;DHT22;2947;52.276;9.946;2022-09-09T07:28:47;17.90;99.90
5842;DHT22;2947;52.276;9.946;2022-09-09T07:31:16;18.10;99.90
5842;DHT22;2947;52.276;9.946;2022-09-09T07:33:47;18.20;99.90
5842;DHT22;2947;52.276;9.946;2022-09-09T07:36:14;18.30;99.90
5842;DHT22;2947;52.276;9.946;2022-09-09T07:38:43;18.40;99.90
5842;DHT22;2947;52.276;9.946;2022-09-09T07:41:13;18.50;99.90
5842;DHT22;2947;52.276;9.946;2022-09-09T07:43:42;18.50;99.90
5842;DHT22;2947;52.276;9.946;2022-09-09T07:46:10;18.60;99.90
5842;DHT22;2947;52.276;9.946;2022-09-09T07:48:38;18.60;99.90
5842;DHT22;2947;52.276;9.946;2022-09-09T07:51:11;18.70;99.90
5842;DHT22;2947;52.276;9.946;2022-09-09T07:53:42;18.70;99.90
5842;DHT22;2947;52.276;9.946;2022-09-09T07:56:11;18.80;99.90
5842;DHT22;2947;52.276;9.946;2022-09-09T07:58:39;18.70;99.90
5842;DHT22;2947;52.276;9.946;2022-09-09T08:01:10;18.70;99.90
5842;DHT22;2947;52.276;9.946;2022-09-09T08:06:31;18.90;99.90
5842;DHT22;2947;52.276;9.946;2022-09-09T08:08:59;19.00;99.90
5842;DHT22;2947;52.276;9.946;2022-09-09T08:11:26;19.10;99.40
5842;DHT22;2947;52.276;9.946;2022-09-09T08:13:54;19.10;72.60
5842;DHT22;2947;52.276;9.946;2022-09-09T08:16:24;19.10;92.00
5842;DHT22;2947;52.276;9.946;2022-09-09T08:18:52;19.20;61.60
5842;DHT22;2947;52.276;9.946;2022-09-09T08:21:24;19.20;83.90
5842;DHT22;2947;52.276;9.946;2022-09-09T08:23:56;19.40;84.00
5842;DHT22;2947;52.276;9.946;2022-09-09T08:26:27;19.50;82.90
5842;DHT22;2947;52.276;9.946;2022-09-09T08:28:56;19.50;79.80
5842;DHT22;2947;52.276;9.946;2022-09-09T08:31:28;19.40;46.50
5842;DHT22;2947;52.276;9.946;2022-09-09T08:33:57;19.40;41.30
5842;DHT22;2947;52.276;9.946;2022-09-09T08:36:27;19.40;35.00
5842;DHT22;2947;52.276;9.946;2022-09-09T08:38:56;19.50;49.30
5842;DHT22;2947;52.276;9.946;2022-09-09T08:44:38;19.50;23.60
5842;DHT22;2947;52.276;9.946;2022-09-09T08:55:52;19.30;34.80
5842;DHT22;2947;52.276;9.946;2022-09-09T08:58:27;19.30;29.70
5842;DHT22;2947;52.276;9.946;2022-09-09T09:11:54;19.70;34.20
5842;DHT22;2947;52.276;9.946;2022-09-09T09:14:30;19.70;13.90
5842;DHT22;2947;52.276;9.946;2022-09-09T09:17:03;19.80;22.60
5842;DHT22;2947;52.276;9.946;2022-09-09T09:19:34;19.90;1.00
5842;DHT22;2947;52.276;9.946;2022-09-09T09:22:31;20.00;8.00
5842;DHT22;2947;52.276;9.946;2022-09-09T09:25:09;20.10;16.70
5842;DHT22;2947;52.276;9.946;2022-09-09T09:31:04;20.20;1.00
5842;DHT22;2947;52.276;9.946;2022-09-09T09:33:40;20.20;1.00
5842;DHT22;2947;52.276;9.946;2022-09-09T09:36:12;20.20;1.00
5842;DHT22;2947;52.276;9.946;2022-09-09T09:38:55;20.30;1.00
5842;DHT22;2947;52.276;9.946;2022-09-09T09:44:05;20.30;1.00
5842;DHT22;2947;52.276;9.946;2022-09-09T09:46:32;20.40;1.00
5842;DHT22;2947;52.276;9.946;2022-09-09T09:49:02;20.50;1.00
5842;DHT22;2947;52.276;9.946;2022-09-09T09:51:31;20.50;1.00
5842;DHT22;2947;52.276;9.946;2022-09-09T09:54:27;20.40;1.00
5842;DHT22;2947;52.276;9.946;2022-09-09T09:56:55;20.30;1.00
5842;DHT22;2947;52.276;9.946;2022-09-09T10:02:20;20.50;1.00
5842;DHT22;2947;52.276;9.946;2022-09-09T10:05:22;20.60;1.00
5842;DHT22;2947;52.276;9.946;2022-09-09T10:08:12;20.80;1.00
5842;DHT22;2947;52.276;9.946;2022-09-09T10:11:01;20.80;1.00
5842;DHT22;2947;52.276;9.946;2022-09-09T10:19:13;20.90;99.90
5842;DHT22;2947;52.276;9.946;2022-09-09T10:22:02;20.90;1.00
5842;DHT22;2947;52.276;9.946;2022-09-09T10:31:51;20.70;1.00
5842;DHT22;2947;52.276;9.946;2022-09-09T10:34:50;20.80;1.00
5842;DHT22;2947;52.276;9.946;2022-09-09T10:40:37;20.90;99.90
5842;DHT22;2947;52.276;9.946;2022-09-09T10:46:07;20.80;1.00
5842;DHT22;2947;52.276;9.946;2022-09-09T10:54:31;20.90;99.90
5842;DHT22;2947;52.276;9.946;2022-09-09T10:57:04;21.00;1.00
5842;DHT22;2947;52.276;9.946;2022-09-09T10:59:38;21.20;1.00
5842;DHT22;2947;52.276;9.946;2022-09-09T11:02:15;21.30;1.00
5842;DHT22;2947;52.276;9.946;2022-09-09T11:05:02;21.40;99.90
5842;DHT22;2947;52.276;9.946;2022-09-09T11:10:06;21.70;99.90
5842;DHT22;2947;52.276;9.946;2022-09-09T11:12:39;21.70;99.90
5842;DHT22;2947;52.276;9.946;2022-09-09T11:15:17;21.80;68.50
5842;DHT22;2947;52.276;9.946;2022-09-09T11:17:53;22.00;1.00
5842;DHT22;2947;52.276;9.946;2022-09-09T11:20:22;22.00;99.90
5842;DHT22;2947;52.276;9.946;2022-09-09T11:22:51;22.00;1.90
5842;DHT22;2947;52.276;9.946;2022-09-09T11:25:41;21.90;99.90
5842;DHT22;2947;52.276;9.946;2022-09-09T11:28:17;21.90;1.00
5842;DHT22;2947;52.276;9.946;2022-09-09T11:37:07;21.30;1.00
5842;DHT22;2947;52.276;9.946;2022-09-09T11:40:08;21.10;99.90
5842;DHT22;2947;52.276;9.946;2022-09-09T11:42:35;21.10;99.90
5842;DHT22;2947;52.276;9.946;2022-09-09T11:45:23;21.10;99.90
5842;DHT22;2947;52.276;9.946;2022-09-09T11:47:57;20.90;1.00
5842;DHT22;2947;52.276;9.946;2022-09-09T11:52:50;20.90;99.90
5842;DHT22;2947;52.276;9.946;2022-09-09T11:55:29;20.80;99.90
5842;DHT22;2947;52.276;9.946;2022-09-09T12:00:43;20.30;1.00
5842;DHT22;2947;52.276;9.946;2022-09-09T12:06:31;20.10;99.90
5842;DHT22;2947;52.276;9.946;2022-09-09T12:19:40;20.00;1.00
5842;DHT22;2947;52.276;9.946;2022-09-09T12:25:16;20.20;99.90
5842;DHT22;2947;52.276;9.946;2022-09-09T12:28:17;20.30;99.90
5842;DHT22;2947;52.276;9.946;2022-09-09T12:30:58;20.30;99.90
5842;DHT22;2947;52.276;9.946;2022-09-09T12:33:37;20.30;99.90
5842;DHT22;2947;52.276;9.946;2022-09-09T12:36:15;20.40;99.90
5842;DHT22;2947;52.276;9.946;2022-09-09T12:38:45;20.50;1.00
5842;DHT22;2947;52.276;9.946;2022-09-09T12:41:23;20.50;99.90
5842;DHT22;2947;52.276;9.946;2022-09-09T12:44:02;20.60;99.90
5842;DHT22;2947;52.276;9.946;2022-09-09T12:46:35;20.60;99.90
5842;DHT22;2947;52.276;9.946;2022-09-09T12:49:03;20.70;99.90
5842;DHT22;2947;52.276;9.946;2022-09-09T12:51:31;20.80;1.00
5842;DHT22;2947;52.276;9.946;2022-09-09T12:54:00;20.80;99.90
5842;DHT22;2947;52.276;9.946;2022-09-09T12:56:31;20.80;1.00
5842;DHT22;2947;52.276;9.946;2022-09-09T12:59:00;20.80;99.90
5842;DHT22;2947;52.276;9.946;2022-09-09T13:01:31;20.80;99.90
5842;DHT22;2947;52.276;9.946;2022-09-09T13:03:59;20.80;1.00
5842;DHT22;2947;52.276;9.946;2022-09-09T13:06:30;20.80;99.90
5842;DHT22;2947;52.276;9.946;2022-09-09T13:08:59;20.80;99.90
5842;DHT22;2947;52.276;9.946;2022-09-09T13:14:23;20.60;99.90
5842;DHT22;2947;52.276;9.946;2022-09-09T13:17:14;20.70;1.00
5842;DHT22;2947;52.276;9.946;2022-09-09T13:19:44;20.60;99.90
5842;DHT22;2947;52.276;9.946;2022-09-09T13:22:13;20.40;1.00
5842;DHT22;2947;52.276;9.946;2022-09-09T13:24:42;20.30;99.90
5842;DHT22;2947;52.276;9.946;2022-09-09T13:30:01;20.10;99.90
5842;DHT22;2947;52.276;9.946;2022-09-09T13:32:27;20.10;99.90
5842;DHT22;2947;52.276;9.946;2022-09-09T13:35:23;20.00;99.90
5842;DHT22;2947;52.276;9.946;2022-09-09T13:37:49;20.00;1.00
5842;DHT22;2947;52.276;9.946;2022-09-09T13:40:20;20.00;99.90
5842;DHT22;2947;52.276;9.946;2022-09-09T13:42:50;20.10;1.00
5842;DHT22;2947;52.276;9.946;2022-09-09T13:45:24;20.10;99.90
5842;DHT22;2947;52.276;9.946;2022-09-09T13:47:57;20.20;99.90
5842;DHT22;2947;52.276;9.946;2022-09-09T13:50:34;20.20;99.90
5842;DHT22;2947;52.276;9.946;2022-09-09T13:53:00;20.30;99.90
5842;DHT22;2947;52.276;9.946;2022-09-09T13:55:27;20.30;1.00
5842;DHT22;2947;52.276;9.946;2022-09-09T13:57:58;20.40;1.00
5842;DHT22;2947;52.276;9.946;2022-09-09T14:00:33;20.40;1.00
5842;DHT22;2947;52.276;9.946;2022-09-09T14:02:59;20.50;99.90
5842;DHT22;2947;52.276;9.946;2022-09-09T14:05:29;20.60;99.90
5842;DHT22;2947;52.276;9.946;2022-09-09T14:07:56;20.70;99.90
5842;DHT22;2947;52.276;9.946;2022-09-09T14:13:06;20.80;99.90
5842;DHT22;2947;52.276;9.946;2022-09-09T14:15:33;20.80;1.00
5842;DHT22;2947;52.276;9.946;2022-09-09T14:17:59;20.90;99.90
5842;DHT22;2947;52.276;9.946;2022-09-09T14:20:24;20.90;1.00
5842;DHT22;2947;52.276;9.946;2022-09-09T14:22:50;21.00;99.90
5842;DHT22;2947;52.276;9.946;2022-09-09T14:25:16;21.10;1.00
5842;DHT22;2947;52.276;9.946;2022-09-09T14:27:42;21.10;1.00
5842;DHT22;2947;52.276;9.946;2022-09-09T14:30:09;21.10;1.00
5842;DHT22;2947;52.276;9.946;2022-09-09T14:32:35;21.10;1.00
5842;DHT22;2947;52.276;9.946;2022-09-09T14:35:00;21.00;99.90
5842;DHT22;2947;52.276;9.946;2022-09-09T14:37:27;21.10;99.90
5842;DHT22;2947;52.276;9.946;2022-09-09T14:39:52;21.10;1.00
5842;DHT22;2947;52.276;9.946;2022-09-09T14:42:19;21.10;1.00
5842;DHT22;2947;52.276;9.946;2022-09-09T14:44:45;21.10;99.50
5842;DHT22;2947;52.276;9.946;2022-09-09T14:47:10;21.10;1.00
5842;DHT22;2947;52.276;9.946;2022-09-09T14:49:36;21.20;1.00
5842;DHT22;2947;52.276;9.946;2022-09-09T14:52:03;21.30;99.90
5842;DHT22;2947;52.276;9.946;2022-09-09T14:54:33;21.40;99.90
5842;DHT22;2947;52.276;9.946;2022-09-09T14:56:58;21.50;1.00
5842;DHT22;2947;52.276;9.946;2022-09-09T14:59:24;21.50;99.90
5842;DHT22;2947;52.276;9.946;2022-09-09T15:01:50;21.50;99.90
5842;DHT22;2947;52.276;9.946;2022-09-09T15:04:16;21.60;99.90
5842;DHT22;2947;52.276;9.946;2022-09-09T15:06:45;21.50;99.90
5842;DHT22;2947;52.276;9.946;2022-09-09T15:09:14;21.50;99.90
5842;DHT22;2947;52.276;9.946;2022-09-09T15:11:40;21.60;99.90
5842;DHT22;2947;52.276;9.946;2022-09-09T15:14:07;21.60;99.90
5842;DHT22;2947;52.276;9.946;2022-09-09T15:16:35;21.60;1.00
5842;DHT22;2947;52.276;9.946;2022-09-09T15:19:01;21.60;1.00
5842;DHT22;2947;52.276;9.946;2022-09-09T15:21:33;21.60;99.90
5842;DHT22;2947;52.276;9.946;2022-09-09T15:24:00;21.60;1.00
5842;DHT22;2947;52.276;9.946;2022-09-09T15:26:26;21.70;1.00
5842;DHT22;2947;52.276;9.946;2022-09-09T15:28:53;21.70;1.00
5842;DHT22;2947;52.276;9.946;2022-09-09T15:31:22;21.60;1.00
5842;DHT22;2947;52.276;9.946;2022-09-09T15:33:56;21.60;1.00
5842;DHT22;2947;52.276;9.946;2022-09-09T15:38:55;21.60;1.00
5842;DHT22;2947;52.276;9.946;2022-09-09T15:41:22;21.60;1.00
5842;DHT22;2947;52.276;9.946;2022-09-09T15:43:50;21.60;1.00
5842;DHT22;2947;52.276;9.946;2022-09-09T15:48:43;21.60;1.00
5842;DHT22;2947;52.276;9.946;2022-09-09T15:51:11;21.60;1.00
5842;DHT22;2947;52.276;9.946;2022-09-09T15:53:37;21.60;1.00
5842;DHT22;2947;52.276;9.946;2022-09-09T15:56:07;21.60;1.00
5842;DHT22;2947;52.276;9.946;2022-09-09T15:58:34;21.60;1.00
5842;DHT22;2947;52.276;9.946;2022-09-09T16:01:09;21.60;1.00
5842;DHT22;2947;52.276;9.946;2022-09-09T16:03:41;21.60;1.00
5842;DHT22;2947;52.276;9.946;2022-09-09T16:06:16;21.60;1.00
5842;DHT22;2947;52.276;9.946;2022-09-09T16:08:45;21.60;1.00
5842;DHT22;2947;52.276;9.946;2022-09-09T16:11:17;21.60;1.00
5842;DHT22;2947;52.276;9.946;2022-09-09T16:13:54;21.60;1.00
5842;DHT22;2947;52.276;9.946;2022-09-09T16:16:23;21.60;1.00
5842;DHT22;2947;52.276;9.946;2022-09-09T16:18:52;21.60;1.00
5842;DHT22;2947;52.276;9.946;2022-09-09T16:21:29;21.50;1.00
5842;DHT22;2947;52.276;9.946;2022-09-09T16:24:01;21.50;1.00
5842;DHT22;2947;52.276;9.946;2022-09-09T16:26:29;21.50;1.00
5842;DHT22;2947;52.276;9.946;2022-09-09T16:28:56;21.50;1.00
5842;DHT22;2947;52.276;9.946;2022-09-09T16:31:24;21.40;1.00
5842;DHT22;2947;52.276;9.946;2022-09-09T16:33:50;21.40;1.00
5842;DHT22;2947;52.276;9.946;2022-09-09T16:36:22;21.40;1.00
5842;DHT22;2947;52.276;9.946;2022-09-09T16:38:52;21.40;1.00
5842;DHT22;2947;52.276;9.946;2022-09-09T16:41:23;21.30;1.00
5842;DHT22;2947;52.276;9.946;2022-09-09T16:43:58;21.30;1.00
5842;DHT22;2947;52.276;9.946;2022-09-09T16:46:27;21.30;1.00
5842;DHT22;2947;52.276;9.946;2022-09-09T16:48:56;21.10;1.00
5842;DHT22;2947;52.276;9.946;2022-09-09T16:51:26;21.10;1.00
5842;DHT22;2947;52.276;9.946;2022-09-09T16:53:53;21.00;1.00
5842;DHT22;2947;52.276;9.946;2022-09-09T16:56:24;20.90;1.00
5842;DHT22;2947;52.276;9.946;2022-09-09T16:58:53;20.90;1.00
5842;DHT22;2947;52.276;9.946;2022-09-09T17:01:23;20.90;1.00
5842;DHT22;2947;52.276;9.946;2022-09-09T17:03:57;20.70;1.00
5842;DHT22;2947;52.276;9.946;2022-09-09T17:06:24;20.70;1.00
5842;DHT22;2947;52.276;9.946;2022-09-09T17:08:58;20.60;1.00
5842;DHT22;2947;52.276;9.946;2022-09-09T17:11:26;20.50;1.00
5842;DHT22;2947;52.276;9.946;2022-09-09T17:13:52;20.40;1.00
5842;DHT22;2947;52.276;9.946;2022-09-09T17:16:22;20.40;1.00
5842;DHT22;2947;52.276;9.946;2022-09-09T17:18:53;20.40;10.70
5842;DHT22;2947;52.276;9.946;2022-09-09T17:21:23;20.30;26.10
5842;DHT22;2947;52.276;9.946;2022-09-09T17:23:51;20.30;57.50
5842;DHT22;2947;52.276;9.946;2022-09-09T17:26:19;20.20;99.90
5842;DHT22;2947;52.276;9.946;2022-09-09T17:28:48;20.20;99.90
5842;DHT22;2947;52.276;9.946;2022-09-09T17:31:16;20.10;99.90
5842;DHT22;2947;52.276;9.946;2022-09-09T17:33:45;20.10;99.90
5842;DHT22;2947;52.276;9.946;2022-09-09T17:36:31;20.00;99.90
5842;DHT22;2947;52.276;9.946;2022-09-09T17:38:59;19.90;99.90
5842;DHT22;2947;52.276;9.946;2022-09-09T17:41:31;19.90;99.90
5842;DHT22;2947;52.276;9.946;2022-09-09T17:43:58;19.90;99.90
5842;DHT22;2947;52.276;9.946;2022-09-09T17:46:35;19.90;99.90
5842;DHT22;2947;52.276;9.946;2022-09-09T17:49:05;19.80;99.90
5842;DHT22;2947;52.276;9.946;2022-09-09T17:51:33;19.80;1.00
5842;DHT22;2947;52.276;9.946;2022-09-09T17:54:03;19.80;1.00
5842;DHT22;2947;52.276;9.946;2022-09-09T17:56:32;19.80;1.00
5842;DHT22;2947;52.276;9.946;2022-09-09T17:59:02;19.70;1.00
5842;DHT22;2947;52.276;9.946;2022-09-09T18:01:32;19.70;1.00
5842;DHT22;2947;52.276;9.946;2022-09-09T18:04:01;19.60;5.40
5842;DHT22;2947;52.276;9.946;2022-09-09T18:06:33;19.60;1.00
5842;DHT22;2947;52.276;9.946;2022-09-09T18:09:04;19.60;73.00
5842;DHT22;2947;52.276;9.946;2022-09-09T18:11:36;19.60;1.00
5842;DHT22;2947;52.276;9.946;2022-09-09T18:14:07;19.60;20.40
5842;DHT22;2947;52.276;9.946;2022-09-09T18:16:36;19.60;1.00
5842;DHT22;2947;52.276;9.946;2022-09-09T18:19:04;19.60;1.00
5842;DHT22;2947;52.276;9.946;2022-09-09T18:21:33;19.60;17.80
5842;DHT22;2947;52.276;9.946;2022-09-09T18:24:04;19.60;7.40
5842;DHT22;2947;52.276;9.946;2022-09-09T18:26:32;19.60;83.50
5842;DHT22;2947;52.276;9.946;2022-09-09T18:29:03;19.60;99.90
5842;DHT22;2947;52.276;9.946;2022-09-09T18:31:31;19.60;99.90
5842;DHT22;2947;52.276;9.946;2022-09-09T18:34:00;19.50;99.90
5842;DHT22;2947;52.276;9.946;2022-09-09T18:36:50;19.50;69.30
5842;DHT22;2947;52.276;9.946;2022-09-09T18:39:18;19.60;99.90
5842;DHT22;2947;52.276;9.946;2022-09-09T18:41:48;19.50;99.90
5842;DHT22;2947;52.276;9.946;2022-09-09T18:44:18;19.50;99.90
5842;DHT22;2947;52.276;9.946;2022-09-09T18:46:46;19.50;99.90
5842;DHT22;2947;52.276;9.946;2022-09-09T18:49:12;19.50;1.00
5842;DHT22;2947;52.276;9.946;2022-09-09T18:51:40;19.50;1.00
5842;DHT22;2947;52.276;9.946;2022-09-09T18:54:12;19.50;1.00
5842;DHT22;2947;52.276;9.946;2022-09-09T18:56:39;19.40;1.00
5842;DHT22;2947;52.276;9.946;2022-09-09T18:59:06;19.40;1.00
5842;DHT22;2947;52.276;9.946;2022-09-09T19:01:34;19.40;99.90
5842;DHT22;2947;52.276;9.946;2022-09-09T19:04:05;19.40;1.00
5842;DHT22;2947;52.276;9.946;2022-09-09T19:06:35;19.40;99.90
5842;DHT22;2947;52.276;9.946;2022-09-09T19:09:03;19.70;1.00
5842;DHT22;2947;52.276;9.946;2022-09-09T19:11:29;19.10;1.00
5842;DHT22;2947;52.276;9.946;2022-09-09T19:13:58;19.00;99.90
5842;DHT22;2947;52.276;9.946;2022-09-09T19:16:27;19.00;1.00